Corn Creek, Nevada
Current Conditions -  °F | °C
As of 7:56 AM on Friday 24 Oct 2014 (Local Time) from KHND Reporting Station
Clear Clear  
Wind Chill: 60°   Ceiling: Unl
Heat Index: 60°   Visibility: 10mi
Dew Point: 36°   Wind: 7mph
Humidity: 41%   Direction: 160°SSE
Pressure: 30.13"   Gusts: NA
Location:  35.8437°N, 115.134°W
Report Text: KHND 241456Z 16006KT 10SM CLR 16/02 A3013 RMK AO2 53016 T01550022 SLP191
Loading
Personal Weather Stations






























Interactive Weather Map
Tropical Storm Tracking
New forecast layout! Learn more

10-Day Weather Forecast

Advertisements
Track Severe Weather on mobile